Flight Track Log - Related Links

Times and Time Zones

All times are in EDT time to prevent confusion due to time zone crossing. See the DAL10 flight status page for this flight to view local times or setup timezone preferences in your user account.

Time Position Orientation Groundspeed Altitude Reporting Facility
EDT Latitude Longitude Course Direction KTS MPH feet Rate Location/Type
Sun 10:59:53 PM 33.6331 -84.3656 53° Northeast 439 505 3,400  Level Atlanta Center
Sun 11:00:28 PM 33.6333 -84.3167 90° East 223 257 4,700 2,272 Climbing Atlanta TRACON
Sun 11:01:00 PM 33.7739 -83.9381 54° Northeast  Level FlightAware Approximate
Sun 11:02:00 PM 33.8573 -83.7990 54° Northeast  Level FlightAware Approximate
Sun 11:03:00 PM 33.9478 -83.6667 53° Northeast  Level FlightAware Approximate
Sun 11:04:00 PM 34.0334 -83.5293 53° Northeast  Level FlightAware Approximate
Sun 11:05:00 PM 34.1189 -83.3916 53° Northeast  Level FlightAware Approximate
Sun 11:06:45 PM 33.9350 -83.7070 90° East 436 502 19,000  Level FlightAware ADS-B
Sun 11:07:25 PM 33.9830 -83.6300 53° Northeast 441 507 20,400 2,100 Climbing FlightAware ADS-B
Sun 11:08:05 PM 34.0340 -83.5490 53° Northeast 454 522 21,800 1,976 Climbing FlightAware ADS-B
Sun 11:08:50 PM 34.0910 -83.4580 53° Northeast 462 532 23,200 1,906 Climbing FlightAware ADS-B
Sun 11:09:30 PM 34.1440 -83.3740 53° Northeast 468 539 24,500 1,714 Climbing FlightAware ADS-B
Sun 11:10:00 PM 34.1840 -83.3100 53° Northeast 484 557 25,200 1,543 Climbing FlightAware ADS-B
Sun 11:10:40 PM 34.2370 -83.2260 53° Northeast 485 558 26,300 1,808 Climbing FlightAware ADS-B
Sun 11:11:13 PM 34.2864 -83.1468 53° Northeast 494 568 27,400 1,636 Climbing FlightAware ADS-B
Sun 11:11:46 PM 34.3331 -83.0719 53° Northeast 502 578 28,100 1,108 Climbing FlightAware ADS-B
Sun 11:12:18 PM 34.3779 -83.0000 53° Northeast 514 592 28,600 1,263 Climbing FlightAware ADS-B
Sun 11:13:40 PM 34.4910 -82.8170 53° Northeast 525 604 30,500 1,417 Climbing FlightAware ADS-B
Sun 11:14:25 PM 34.5590 -82.7070 53° Northeast 527 606 31,600 1,379 Climbing FlightAware ADS-B
Sun 11:15:07 PM 34.6236 -82.6026 53° Northeast 525 604 32,500 1,151 Climbing FlightAware ADS-B
Sun 11:15:38 PM 34.6680 -82.5302 53° Northeast 527 606 33,000 462 Climbing FlightAware ADS-B
Sun 11:16:12 PM 34.7185 -82.4479 53° Northeast 525 604 33,000  Level FlightAware ADS-B
Sun 11:16:42 PM 34.7617 -82.3771 53° Northeast 523 602 33,000  Level FlightAware ADS-B
Sun 11:17:13 PM 34.8055 -82.3053 53° Northeast 523 602 33,000  Level FlightAware ADS-B
Sun 11:17:43 PM 34.8497 -82.2330 53° Northeast 523 602 33,000  Level FlightAware ADS-B
Sun 11:18:15 PM 34.8945 -82.1590 54° Northeast 524 603 33,000  Level FlightAware ADS-B
Sun 11:18:45 PM 34.9378 -82.0880 53° Northeast 524 603 33,000  Level FlightAware ADS-B
Sun 11:19:15 PM 34.9821 -82.0148 54° Northeast 524 603 33,000  Level FlightAware ADS-B
Sun 11:19:46 PM 35.0251 -81.9421 54° Northeast 524 603 33,000  Level FlightAware ADS-B
Sun 11:20:17 PM 35.0673 -81.8656 56° Northeast 524 603 33,000  Level FlightAware ADS-B
Sun 11:20:48 PM 35.1080 -81.7902 57° Northeast 524 603 33,000  Level FlightAware ADS-B
Sun 11:21:19 PM 35.1500 -81.7113 57° Northeast 524 603 33,000  Level FlightAware ADS-B
Sun 11:21:50 PM 35.1898 -81.6359 57° Northeast 524 603 33,000  Level FlightAware ADS-B
Sun 11:22:25 PM 35.2359 -81.5494 57° Northeast 524 603 33,000  Level FlightAware ADS-B
Sun 11:23:04 PM 35.2870 -81.4525 57° Northeast 524 603 33,000  Level FlightAware ADS-B
Sun 11:23:34 PM 35.3267 -81.3770 57° Northeast 525 604 33,000  Level FlightAware ADS-B
Sun 11:24:04 PM 35.3663 -81.3018 57° Northeast 525 604 33,000  Level FlightAware ADS-B
Sun 11:25:10 PM 35.4500 -81.1420 57° Northeast 527 606 33,000  Level FlightAware ADS-B
Sun 11:25:50 PM 35.5030 -81.0400 57° Northeast 527 606 33,000  Level FlightAware ADS-B
Sun 11:26:35 PM 35.5610 -80.9300 57° Northeast 527 606 33,000  Level FlightAware ADS-B
Sun 11:27:15 PM 35.6150 -80.8260 57° Northeast 528 608 33,000  Level FlightAware ADS-B
Sun 11:27:50 PM 35.6590 -80.7400 58° Northeast 528 608 33,000  Level FlightAware ADS-B
Sun 11:28:30 PM 35.6590 -80.7400 58° Northeast 530 610 33,000  Level FlightAware ADS-B
Sun 11:29:35 PM 35.7000 -80.6620 57° Northeast 534 615 33,000  Level FlightAware ADS-B
Sun 11:30:15 PM 35.7460 -80.5750 57° Northeast 534 615 33,000  Level FlightAware ADS-B
Sun 11:30:55 PM 35.7920 -80.4880 57° Northeast 534 615 33,000  Level FlightAware ADS-B
Sun 11:31:35 PM 35.8370 -80.4020 57° Northeast 534 615 33,000  Level FlightAware ADS-B
Sun 11:32:25 PM 35.8950 -80.2930 57° Northeast 534 615 33,000  Level FlightAware ADS-B
Sun 11:33:05 PM 35.9400 -80.2060 57° Northeast 534 615 33,000  Level FlightAware ADS-B
Sun 11:33:45 PM 35.9860 -80.1190 57° Northeast 534 615 33,000  Level FlightAware ADS-B
Sun 11:34:25 PM 36.0320 -80.0320 57° Northeast 534 615 33,000  Level FlightAware ADS-B
Sun 11:35:05 PM 36.0770 -79.9450 57° Northeast 534 615 33,000  Level FlightAware ADS-B
Sun 11:35:55 PM 36.1350 -79.8360 57° Northeast 534 615 33,000  Level FlightAware ADS-B
Sun 11:36:35 PM 36.1800 -79.7480 58° Northeast 534 615 33,000  Level FlightAware ADS-B
Sun 11:37:15 PM 36.2260 -79.6610 57° Northeast 534 615 33,000  Level FlightAware ADS-B
Sun 11:37:55 PM 36.2720 -79.5740 57° Northeast 534 615 33,000  Level FlightAware ADS-B
Sun 11:39:50 PM 36.6550 -78.9010 55° Northeast 541 623 33,000  Level FlightAware ADS-B
Sun 11:40:30 PM 36.7030 -78.8140 55° Northeast 541 623 33,000  Level FlightAware ADS-B
Sun 11:41:10 PM 36.7520 -78.7270 55° Northeast 541 623 33,000  Level FlightAware ADS-B
Sun 11:41:50 PM 36.8010 -78.6400 55° Northeast 541 623 33,000  Level FlightAware ADS-B
Sun 11:42:40 PM 36.8620 -78.5310 55° Northeast 541 623 33,000  Level FlightAware ADS-B
Sun 11:43:20 PM 36.9110 -78.4440 55° Northeast 541 623 33,000  Level FlightAware ADS-B
Sun 11:44:15 PM 37.0200 -78.2310 57° Northeast 533 613 33,000  Level FlightAware ADS-B
Sun 11:44:55 PM 37.0670 -78.1440 56° Northeast 533 613 33,000  Level FlightAware ADS-B
Sun 11:45:35 PM 37.1140 -78.0570 56° Northeast 533 613 33,000  Level FlightAware ADS-B
Sun 11:45:55 PM 37.2130 -78.0010 24° Northeast 538 619 33,000  Level FlightAware ADS-B
Sun 11:46:35 PM 37.2830 -77.9240 41° Northeast 537 618 33,000  Level FlightAware ADS-B
Sun 11:47:20 PM 37.3720 -77.8260 41° Northeast 536 617 33,000  Level FlightAware ADS-B
Sun 11:48:00 PM 37.4470 -77.7450 41° Northeast 535 616 33,000  Level FlightAware ADS-B
Sun 11:48:40 PM 37.5190 -77.6650 41° Northeast 535 616 33,000  Level FlightAware ADS-B
Sun 11:49:25 PM 37.6000 -77.5760 41° Northeast 534 615 33,000  Level FlightAware ADS-B
Sun 11:50:05 PM 37.6790 -77.4900 41° Northeast 534 615 33,000  Level FlightAware ADS-B
Sun 11:50:50 PM 37.7600 -77.3990 42° Northeast 534 615 33,000  Level FlightAware ADS-B
Sun 11:51:06 PM 37.7942 -77.3613 41° Northeast 533 613 33,000  Level FlightAware ADS-B
Sun 11:51:40 PM 37.8567 -77.2914 41° Northeast 533 613 33,000  Level FlightAware ADS-B
Sun 11:52:10 PM 37.9130 -77.2287 41° Northeast 532 612 33,000  Level FlightAware ADS-B
Sun 11:52:41 PM 37.9688 -77.1662 41° Northeast 532 612 33,000  Level FlightAware ADS-B
Sun 11:53:12 PM 38.0275 -77.1003 41° Northeast 531 611 33,000  Level FlightAware ADS-B
Sun 11:53:43 PM 38.0828 -77.0382 41° Northeast 531 611 33,000  Level FlightAware ADS-B
Sun 11:54:18 PM 38.1473 -76.9654 42° Northeast 530 610 33,000  Level FlightAware ADS-B
Sun 11:54:48 PM 38.2029 -76.9024 42° Northeast 530 610 33,000  Level FlightAware ADS-B
Sun 11:55:19 PM 38.2592 -76.8386 42° Northeast 530 610 33,000  Level FlightAware ADS-B
Sun 11:55:50 PM 38.3159 -76.7744 42° Northeast 530 610 33,000  Level FlightAware ADS-B
Sun 11:56:21 PM 38.3722 -76.7106 42° Northeast 530 610 33,000  Level FlightAware ADS-B
Sun 11:56:51 PM 38.4271 -76.6478 42° Northeast 530 610 33,000  Level FlightAware ADS-B
Sun 11:57:21 PM 38.4825 -76.5845 42° Northeast 529 609 33,000  Level FlightAware ADS-B
Sun 11:57:52 PM 38.5387 -76.5202 42° Northeast 528 608 33,000  Level FlightAware ADS-B
Sun 11:58:22 PM 38.5938 -76.4570 42° Northeast 527 606 33,000  Level FlightAware ADS-B
Sun 11:58:53 PM 38.6491 -76.3934 42° Northeast 526 605 33,000  Level FlightAware ADS-B
Sun 11:59:23 PM 38.7035 -76.3306 42° Northeast 525 604 33,000  Level FlightAware ADS-B
Sun 11:59:53 PM 38.7577 -76.2680 42° Northeast 525 604 33,000  Level FlightAware ADS-B
Mon 12:00:24 AM 38.8121 -76.2051 42° Northeast 522 601 33,000  Level FlightAware ADS-B
Mon 12:00:54 AM 38.8666 -76.1419 42° Northeast 522 601 33,000  Level FlightAware ADS-B
Mon 12:01:24 AM 38.9201 -76.0794 42° Northeast 520 598 33,000  Level FlightAware ADS-B
Mon 12:01:54 AM 38.9742 -76.0166 42° Northeast 520 598 33,000  Level FlightAware ADS-B
Mon 12:02:25 AM 39.0284 -75.9532 42° Northeast 519 597 33,000  Level FlightAware ADS-B
Mon 12:02:55 AM 39.0821 -75.8904 42° Northeast 518 596 33,000  Level FlightAware ADS-B
Mon 12:03:27 AM 39.1379 -75.8248 42° Northeast 517 595 33,000  Level FlightAware ADS-B
Mon 12:03:57 AM 39.1917 -75.7618 42° Northeast 517 595 33,000  Level FlightAware ADS-B
Mon 12:04:27 AM 39.2447 -75.6992 42° Northeast 517 595 33,000  Level FlightAware ADS-B
Mon 12:04:58 AM 39.2979 -75.6365 42° Northeast 517 595 33,000  Level FlightAware ADS-B
Mon 12:05:28 AM 39.3513 -75.5732 43° Northeast 517 595 33,000  Level FlightAware ADS-B
Mon 12:05:58 AM 39.4047 -75.5098 43° Northeast 517 595 33,000  Level FlightAware ADS-B
Mon 12:06:31 AM 39.4624 -75.4411 43° Northeast 517 595 33,000  Level FlightAware ADS-B
Mon 12:07:02 AM 39.5161 -75.3770 43° Northeast 517 595 33,000  Level FlightAware ADS-B
Mon 12:07:34 AM 39.5717 -75.3104 43° Northeast 516 594 33,000  Level FlightAware ADS-B
Mon 12:08:04 AM 39.6249 -75.2467 43° Northeast 516 594 33,000  Level FlightAware ADS-B
Mon 12:08:34 AM 39.6773 -75.1838 43° Northeast 517 595 33,000  Level FlightAware ADS-B
Mon 12:09:04 AM 39.7298 -75.1207 43° Northeast 517 595 33,000  Level FlightAware ADS-B
Mon 12:09:34 AM 39.7825 -75.0571 43° Northeast 517 595 33,000  Level FlightAware ADS-B
Mon 12:10:04 AM 39.8351 -74.9935 43° Northeast 517 595 33,000  Level FlightAware ADS-B
Mon 12:10:35 AM 39.8890 -74.9281 43° Northeast 518 596 33,000  Level FlightAware ADS-B
Mon 12:11:05 AM 39.9404 -74.8604 45° Northeast 519 597 33,000  Level FlightAware ADS-B
Mon 12:11:36 AM 39.9895 -74.7907 47° Northeast 520 598 33,000  Level FlightAware ADS-B
Mon 12:12:06 AM 40.0388 -74.7200 48° Northeast 521 600 33,000  Level FlightAware ADS-B
Mon 12:12:36 AM 40.0877 -74.6495 48° Northeast 522 601 33,000  Level FlightAware ADS-B
Mon 12:13:07 AM 40.1366 -74.5789 48° Northeast 523 602 33,000  Level FlightAware ADS-B
Mon 12:13:38 AM 40.1868 -74.5048 48° Northeast 524 603 33,000  Level FlightAware ADS-B
Mon 12:14:08 AM 40.2334 -74.4301 51° Northeast 525 604 33,000  Level FlightAware ADS-B
Mon 12:14:39 AM 40.2788 -74.3547 52° Northeast 526 605 33,000  Level FlightAware ADS-B
Mon 12:15:09 AM 40.3249 -74.2776 52° Northeast 526 605 33,000  Level FlightAware ADS-B
Mon 12:15:39 AM 40.3698 -74.2023 52° Northeast 527 606 33,000  Level FlightAware ADS-B
Mon 12:16:10 AM 40.4161 -74.1243 52° Northeast 527 606 33,000  Level FlightAware ADS-B
Mon 12:16:41 AM 40.4612 -74.0479 52° Northeast 528 608 33,000  Level FlightAware ADS-B
Mon 12:17:11 AM 40.5067 -73.9709 52° Northeast 528 608 33,000  Level FlightAware ADS-B
Mon 12:17:42 AM 40.5527 -73.8928 52° Northeast 527 606 33,000  Level FlightAware ADS-B
Mon 12:18:12 AM 40.5975 -73.8170 52° Northeast 525 604 33,000  Level FlightAware ADS-B
Mon 12:18:42 AM 40.6446 -73.7434 50° Northeast 524 603 33,000  Level FlightAware ADS-B
Mon 12:19:13 AM 40.6951 -73.6708 47° Northeast 524 603 33,000  Level FlightAware ADS-B
Mon 12:19:43 AM 40.7447 -73.6002 47° Northeast 524 603 33,000  Level FlightAware ADS-B
Mon 12:20:14 AM 40.7945 -73.5294 47° Northeast 523 602 33,000  Level FlightAware ADS-B
Mon 12:20:45 AM 40.8456 -73.4565 47° Northeast 523 602 33,000  Level FlightAware ADS-B
Mon 12:21:15 AM 40.8952 -73.3856 47° Northeast 523 602 33,000  Level FlightAware ADS-B
Mon 12:21:46 AM 40.9460 -73.3131 47° Northeast 524 603 33,000  Level FlightAware ADS-B
Mon 12:22:16 AM 40.9951 -73.2425 47° Northeast 523 602 33,000  Level FlightAware ADS-B
Mon 12:22:46 AM 41.0452 -73.1706 47° Northeast 523 602 33,000  Level FlightAware ADS-B
Mon 12:23:17 AM 41.0945 -73.0997 47° Northeast 522 601 33,000  Level FlightAware ADS-B
Mon 12:23:47 AM 41.1439 -73.0286 47° Northeast 521 600 33,000  Level FlightAware ADS-B
Mon 12:24:17 AM 41.1936 -72.9569 47° Northeast 521 600 33,000  Level FlightAware ADS-B
Mon 12:24:48 AM 41.2427 -72.8856 48° Northeast 521 600 33,000  Level FlightAware ADS-B
Mon 12:25:18 AM 41.2926 -72.8130 48° Northeast 520 598 33,000  Level FlightAware ADS-B
Mon 12:25:49 AM 41.3422 -72.7405 48° Northeast 520 598 33,000  Level FlightAware ADS-B
Mon 12:26:21 AM 41.3941 -72.6651 47° Northeast 519 597 33,000  Level FlightAware ADS-B
Mon 12:26:56 AM 41.4510 -72.5817 48° Northeast 519 597 33,000  Level FlightAware ADS-B
Mon 12:27:30 AM 41.4990 -72.5110 48° Northeast 518 596 33,000  Level FlightAware ADS-B
Mon 12:28:10 AM 41.5650 -72.4140 48° Northeast 518 596 33,000  Level FlightAware ADS-B
Mon 12:28:50 AM 41.6290 -72.3200 48° Northeast 519 597 33,000  Level FlightAware ADS-B
Mon 12:29:35 AM 41.6980 -72.2180 48° Northeast 519 597 33,000  Level FlightAware ADS-B
Mon 12:30:15 AM 41.7600 -72.1260 48° Northeast 519 597 33,000  Level FlightAware ADS-B
Mon 12:31:00 AM 41.8350 -72.0140 48° Northeast 519 597 33,000  Level FlightAware ADS-B
Mon 12:32:30 AM 41.9690 -71.7840 52° Northeast 523 602 33,000  Level FlightAware ADS-B
Mon 12:33:20 AM 42.0190 -71.6470 64° Northeast 523 602 33,000  Level FlightAware ADS-B
Mon 12:34:00 AM 42.0660 -71.5160 64° Northeast 523 602 33,000  Level FlightAware ADS-B
Mon 12:34:40 AM 42.1060 -71.4050 64° Northeast 523 602 33,000  Level FlightAware ADS-B
Mon 12:35:25 AM 42.1550 -71.2680 64° Northeast 524 603 33,000  Level FlightAware ADS-B
Mon 12:36:00 AM 42.1900 -71.1680 65° Northeast 524 603 33,000  Level FlightAware ADS-B
Mon 12:36:45 AM 42.2390 -71.0300 64° Northeast 525 604 33,000  Level FlightAware ADS-B
Mon 12:37:30 AM 42.2850 -70.9010 64° Northeast 524 603 33,000  Level FlightAware ADS-B
Mon 12:38:05 AM 42.3210 -70.7990 64° Northeast 525 604 33,000  Level FlightAware ADS-B
Mon 12:38:50 AM 42.3680 -70.6630 65° Northeast 525 604 33,000  Level FlightAware ADS-B
Mon 12:39:35 AM 42.4140 -70.5320 65° Northeast 526 605 33,000  Level FlightAware ADS-B
Mon 12:40:15 AM 42.4560 -70.4110 65° Northeast 526 605 33,000  Level FlightAware ADS-B
Mon 12:41:00 AM 42.5040 -70.2710 65° Northeast 526 605 33,000  Level FlightAware ADS-B
Mon 12:41:40 AM 42.5420 -70.1620 65° Northeast 523 602 33,000  Level FlightAware ADS-B
Mon 12:42:15 AM 42.5790 -70.0520 65° Northeast 524 603 33,000  Level FlightAware ADS-B
Mon 12:43:05 AM 42.6310 -69.9010 65° Northeast 526 605 33,000  Level FlightAware ADS-B
Mon 12:43:40 AM 42.6650 -69.8020 65° Northeast 525 604 33,000  Level FlightAware ADS-B
Mon 12:44:30 AM 42.7190 -69.6410 65° Northeast 527 606 33,000  Level FlightAware ADS-B
Mon 12:45:05 AM 42.7500 -69.5490 65° Northeast 527 606 33,000  Level FlightAware ADS-B
Mon 12:45:55 AM 42.8060 -69.3830 65° Northeast 528 608 33,000  Level FlightAware ADS-B
Mon 12:46:35 AM 42.8430 -69.2690 66° East 528 608 33,000  Level FlightAware ADS-B
Mon 12:47:10 AM 42.8780 -69.1640 66° East 529 609 33,000  Level FlightAware ADS-B
Mon 12:48:00 AM 42.9320 -69.0000 66° East 530 610 33,000  Level FlightAware ADS-B
Mon 12:48:40 AM 42.9700 -68.8860 65° Northeast 532 612 33,000  Level FlightAware ADS-B
Mon 12:49:15 AM 43.0020 -68.7870 66° East 532 612 33,000  Level FlightAware ADS-B
Mon 12:49:55 AM 43.0440 -68.6600 66° East 533 613 33,000  Level FlightAware ADS-B
Mon 12:50:40 AM 43.0830 -68.5390 66° East 533 613 33,000  Level FlightAware ADS-B
Mon 12:51:30 AM 43.1430 -68.3510 66° East 535 616 33,000  Level FlightAware ADS-B
Mon 12:52:10 AM 43.1790 -68.2380 66° East 536 617 33,000  Level FlightAware ADS-B
Mon 12:52:50 AM 43.2120 -68.1320 67° East 536 617 33,000  Level FlightAware ADS-B
Mon 12:53:30 AM 43.2450 -68.0250 67° East 536 617 33,000  Level FlightAware ADS-B
Mon 12:54:30 AM 43.3150 -67.8130 66° East 540 621 33,000  Level FlightAware ADS-B
Mon 12:55:55 AM 43.4010 -67.5350 67° East 540 621 33,000  Level FlightAware ADS-B
Mon 12:57:05 AM 43.4700 -67.3120 67° East 541 623 33,000 300 Level FlightAware ADS-B
Mon 12:58:15 AM 43.5390 -67.0900 67° East 542 624 33,700 857 Climbing FlightAware ADS-B
Mon 12:59:25 AM 43.6370 -66.8920 56° Northeast 528 608 35,000 557 Climbing FlightAware ADS-B
Mon 01:00:35 AM 43.7480 -66.7150 49° Northeast 528 608 35,000  Level FlightAware ADS-B
Mon 01:02:00 AM 43.8850 -66.4960 49° Northeast 526 605 35,000  Level FlightAware ADS-B
Mon 01:03:10 AM 43.9970 -66.3140 49° Northeast 526 605 35,000  Level FlightAware ADS-B
Mon 01:03:50 AM 44.0630 -66.2070 49° Northeast 526 605 35,000  Level FlightAware ADS-B
Mon 01:04:35 AM 44.1340 -66.0910 50° Northeast 527 606 35,000  Level FlightAware ADS-B
Mon 01:05:15 AM 44.1970 -65.9880 50° Northeast 527 606 35,000  Level FlightAware ADS-B
Mon 01:06:00 AM 44.2670 -65.8720 50° Northeast 528 608 35,000  Level FlightAware ADS-B
Mon 01:06:40 AM 44.3350 -65.7610 49° Northeast 529 609 35,000  Level FlightAware ADS-B
Mon 01:07:20 AM 44.3950 -65.6610 50° Northeast 530 610 35,000  Level FlightAware ADS-B
Mon 01:08:05 AM 44.4690 -65.5380 50° Northeast 531 611 35,000  Level FlightAware ADS-B
Mon 01:08:45 AM 44.5310 -65.4340 50° Northeast 531 611 35,000  Level FlightAware ADS-B
Mon 01:09:25 AM 44.5950 -65.3260 50° Northeast 532 612 35,000  Level FlightAware ADS-B
Mon 01:10:10 AM 44.6620 -65.2120 50° Northeast 531 611 35,000  Level FlightAware ADS-B
Mon 01:10:50 AM 44.7310 -65.0960 50° Northeast 537 618 35,000  Level FlightAware ADS-B
Mon 01:11:35 AM 44.8000 -64.9780 50° Northeast 537 618 35,000  Level FlightAware ADS-B
Mon 01:12:15 AM 44.8690 -64.8610 50° Northeast 537 618 35,000  Level FlightAware ADS-B
Mon 01:13:00 AM 44.9390 -64.7410 50° Northeast 536 617 35,000  Level FlightAware ADS-B
Mon 01:13:40 AM 45.0040 -64.6290 51° Northeast 535 616 35,000  Level FlightAware ADS-B
Mon 01:14:20 AM 45.0670 -64.5210 50° Northeast 536 617 35,000  Level FlightAware ADS-B
Mon 01:15:05 AM 45.1360 -64.4010 51° Northeast 536 617 35,000  Level FlightAware ADS-B
Mon 01:15:40 AM 45.1890 -64.3080 51° Northeast 536 617 35,000  Level FlightAware ADS-B
Mon 01:16:25 AM 45.2580 -64.1870 51° Northeast 534 615 35,000  Level FlightAware ADS-B
Mon 01:17:10 AM 45.3220 -64.0760 51° Northeast 534 615 35,000  Level FlightAware ADS-B
Mon 01:17:50 AM 45.3860 -63.9610 52° Northeast 534 615 35,000  Level FlightAware ADS-B
Mon 01:18:35 AM 45.4510 -63.8480 51° Northeast 534 615 35,000  Level FlightAware ADS-B
Mon 01:19:05 AM 45.5040 -63.7520 52° Northeast 535 616 35,000  Level FlightAware ADS-B
Mon 01:19:50 AM 45.5670 -63.6400 51° Northeast 535 616 35,000  Level FlightAware ADS-B
Mon 01:20:40 AM 45.6340 -63.5230 51° Northeast 535 616 35,000  Level FlightAware ADS-B
Mon 01:21:20 AM 45.6860 -63.4300 51° Northeast 535 616 35,000  Level FlightAware ADS-B
Mon 01:22:00 AM 45.7390 -63.3360 51° Northeast 535 616 35,000  Level FlightAware ADS-B
Mon 01:22:40 AM 45.7920 -63.2420 51° Northeast 535 616 35,000  Level FlightAware ADS-B
Mon 01:23:20 AM 45.8450 -63.1480 51° Northeast 535 616 35,000  Level FlightAware ADS-B
Mon 01:24:10 AM 45.9110 -63.0310 51° Northeast 535 616 35,000  Level FlightAware ADS-B
Mon 01:24:50 AM 45.9640 -62.9370 51° Northeast 535 616 35,000  Level FlightAware ADS-B
Mon 01:25:30 AM 46.0170 -62.8430 51° Northeast 535 616 35,000  Level FlightAware ADS-B
Mon 01:26:15 AM 46.1580 -62.5610 54° Northeast 529 609 35,000  Level FlightAware ADS-B
Mon 01:27:00 AM 46.2250 -62.4360 52° Northeast 530 610 35,000  Level FlightAware ADS-B
Mon 01:27:40 AM 46.2860 -62.3230 52° Northeast 530 610 35,000  Level FlightAware ADS-B
Mon 01:28:20 AM 46.3460 -62.2110 52° Northeast 530 610 35,000  Level FlightAware ADS-B
Mon 01:29:05 AM 46.4140 -62.0820 53° Northeast 531 611 35,000  Level FlightAware ADS-B
Mon 01:29:45 AM 46.4740 -61.9680 53° Northeast 531 611 35,000  Level FlightAware ADS-B
Mon 01:30:30 AM 46.5380 -61.8460 53° Northeast 530 610 35,000  Level FlightAware ADS-B
Mon 01:31:10 AM 46.5980 -61.7310 53° Northeast 530 610 35,000  Level FlightAware ADS-B
Mon 01:31:50 AM 46.6570 -61.6180 53° Northeast 531 611 35,000  Level FlightAware ADS-B
Mon 01:32:35 AM 46.7240 -61.4890 53° Northeast 531 611 35,000  Level FlightAware ADS-B
Mon 01:33:15 AM 46.7840 -61.3730 53° Northeast 532 612 35,000  Level FlightAware ADS-B
Mon 01:33:55 AM 46.8430 -61.2590 53° Northeast 533 613 35,000  Level FlightAware ADS-B
Mon 01:34:40 AM 46.9090 -61.1300 53° Northeast 533 613 35,000  Level FlightAware ADS-B
Mon 01:35:20 AM 46.9670 -61.0160 53° Northeast 534 615 35,000  Level FlightAware ADS-B
Mon 01:36:05 AM 47.0350 -60.8830 53° Northeast 534 615 35,000  Level FlightAware ADS-B
Mon 01:36:45 AM 47.0940 -60.7670 53° Northeast 534 615 35,000  Level FlightAware ADS-B
Mon 01:37:30 AM 47.1590 -60.6380 53° Northeast 534 615 35,000  Level FlightAware ADS-B
Mon 01:38:10 AM 47.2150 -60.5250 54° Northeast 534 615 35,000  Level FlightAware ADS-B
Mon 01:38:50 AM 47.2730 -60.4080 54° Northeast 534 615 35,000  Level FlightAware ADS-B
Mon 01:39:35 AM 47.3420 -60.2720 53° Northeast 533 613 35,000  Level FlightAware ADS-B
Mon 01:40:15 AM 47.3990 -60.1550 54° Northeast 531 611 35,000  Level FlightAware ADS-B
Mon 01:40:55 AM 47.4570 -60.0380 54° Northeast 531 611 35,000  Level FlightAware ADS-B
Mon 01:41:40 AM 47.5190 -59.9120 54° Northeast 531 611 35,000  Level FlightAware ADS-B
Mon 01:42:15 AM 47.5650 -59.8190 54° Northeast 531 611 35,000  Level FlightAware ADS-B
Mon 01:43:05 AM 47.6260 -59.6940 54° Northeast 531 611 35,000  Level FlightAware ADS-B
Mon 01:43:45 AM 47.6750 -59.5940 54° Northeast 531 611 35,000  Level FlightAware ADS-B
Mon 01:44:25 AM 47.7240 -59.4930 54° Northeast 531 611 35,000  Level FlightAware ADS-B
Mon 01:45:05 AM 47.7730 -59.3930 54° Northeast 531 611 35,000  Level FlightAware ADS-B
Mon 01:45:45 AM 47.8220 -59.2920 54° Northeast 531 611 35,000  Level FlightAware ADS-B
Mon 01:46:35 AM 47.8840 -59.1660 54° Northeast 531 611 35,000  Level FlightAware ADS-B
Mon 01:47:15 AM 47.9330 -59.0650 54° Northeast 531 611 35,000  Level FlightAware ADS-B
Mon 01:47:55 AM 47.9820 -58.9640 54° Northeast 531 611 35,000  Level FlightAware ADS-B
Mon 01:48:35 AM 48.0310 -58.8630 54° Northeast 531 611 35,000  Level FlightAware ADS-B
Mon 01:49:15 AM 48.0800 -58.7620 54° Northeast 531 611 35,000  Level FlightAware ADS-B
Mon 01:50:05 AM 48.1410 -58.6360 54° Northeast 531 611 35,000  Level FlightAware ADS-B
Mon 01:50:45 AM 48.1900 -58.5340 54° Northeast 531 611 35,000  Level FlightAware ADS-B
Mon 01:51:25 AM 48.2400 -58.4330 53° Northeast 531 611 35,000  Level FlightAware ADS-B
Mon 01:52:33 AM 48.4333 -57.9333 53° Northeast 530 610 35,000  Level Gander Center
Mon 01:53:33 AM 48.5167 -57.7167 60° Northeast 530 610 35,000  Level Gander Center
Mon 01:54:33 AM 48.5833 -57.5667 56° Northeast 530 610 35,000  Level Gander Center
Mon 02:00:20 AM 49.0230 -56.4610 56° Northeast 540 621 35,000  Level FlightAware ADS-B
Mon 02:00:55 AM 49.0600 -56.3590 61° Northeast 540 621 35,000  Level FlightAware ADS-B
Mon 02:01:45 AM 49.1120 -56.2170 61° Northeast 540 621 35,000  Level FlightAware ADS-B
Mon 02:02:20 AM 49.1580 -56.0730 64° Northeast 538 619 35,000  Level FlightAware ADS-B
Mon 02:03:20 AM 49.2230 -55.8800 63° Northeast 538 619 35,000  Level FlightAware ADS-B
Mon 02:04:00 AM 49.2620 -55.7640 63° Northeast 538 619 35,000  Level FlightAware ADS-B
Mon 02:04:40 AM 49.3000 -55.6490 63° Northeast 538 619 35,000  Level FlightAware ADS-B
Mon 02:05:20 AM 49.3380 -55.5330 63° Northeast 538 619 35,000  Level FlightAware ADS-B
Mon 02:06:10 AM 49.3860 -55.3880 63° Northeast 538 619 35,000  Level FlightAware ADS-B
Mon 02:06:50 AM 49.4720 -55.1410 62° Northeast 542 624 35,000  Level FlightAware ADS-B
Mon 02:07:35 AM 49.5220 -54.9890 63° Northeast 543 625 35,000  Level FlightAware ADS-B
Mon 02:08:15 AM 49.5690 -54.8450 63° Northeast 544 626 35,000  Level FlightAware ADS-B
Mon 02:08:55 AM 49.6130 -54.7120 63° Northeast 544 626 35,000  Level FlightAware ADS-B
Mon 02:09:40 AM 49.6640 -54.5570 63° Northeast 546 628 35,000  Level FlightAware ADS-B
Mon 02:10:20 AM 49.7080 -54.4180 64° Northeast 547 629 35,000  Level FlightAware ADS-B
Mon 02:11:05 AM 49.7560 -54.2730 63° Northeast 547 629 35,000  Level FlightAware ADS-B
Mon 02:11:40 AM 49.7940 -54.1520 64° Northeast 549 632 35,000  Level FlightAware ADS-B
Mon 02:12:25 AM 49.8500 -53.9740 64° Northeast 551 634 35,000  Level FlightAware ADS-B
Mon 02:13:10 AM 49.9000 -53.8140 64° Northeast 549 632 35,000 565 Level FlightAware ADS-B
Mon 02:13:50 AM 49.9440 -53.6750 64° Northeast 542 624 35,800 706 Climbing FlightAware ADS-B
Mon 02:14:35 AM 49.9940 -53.5160 64° Northeast 547 629 36,000 141 Climbing FlightAware ADS-B
Mon 02:15:15 AM 50.0380 -53.3710 65° Northeast 550 633 36,000  Level FlightAware ADS-B
Mon 02:15:55 AM 50.0780 -53.2430 64° Northeast 548 631 36,000  Level FlightAware ADS-B
Mon 02:16:40 AM 50.1260 -53.0870 64° Northeast 545 627 36,000  Level FlightAware ADS-B
Mon 02:17:15 AM 50.1590 -52.9740 65° Northeast 545 627 36,000  Level FlightAware ADS-B
Mon 02:18:05 AM 50.2240 -52.7620 64° Northeast 544 626 36,000  Level FlightAware ADS-B
Mon 02:18:45 AM 50.2630 -52.6320 65° Northeast 544 626 36,000  Level FlightAware ADS-B
Mon 02:19:25 AM 50.2990 -52.5110 65° Northeast 544 626 36,000  Level FlightAware ADS-B
Mon 02:20:05 AM 50.3450 -52.3540 65° Northeast 547 629 36,000  Level FlightAware ADS-B
Mon 02:20:50 AM 50.3960 -52.1820 65° Northeast 548 631 36,000  Level FlightAware ADS-B
Mon 02:21:30 AM 50.4330 -52.0590 65° Northeast 548 631 36,000  Level FlightAware ADS-B
Mon 02:22:10 AM 50.4690 -51.9360 65° Northeast 548 631 36,000  Level FlightAware ADS-B
Mon 02:22:50 AM 50.5060 -51.8130 65° Northeast 548 631 36,000  Level FlightAware ADS-B
Mon 02:23:40 AM 50.5510 -51.6600 65° Northeast 548 631 36,000  Level FlightAware ADS-B
Mon 02:24:20 AM 50.5880 -51.5370 65° Northeast 548 631 36,000  Level FlightAware ADS-B
Mon 02:25:00 AM 50.6240 -51.4140 65° Northeast 548 631 36,000  Level FlightAware ADS-B
Mon 02:25:40 AM 50.6600 -51.2900 65° Northeast 548 631 36,000  Level FlightAware ADS-B
Mon 02:26:20 AM 50.6970 -51.1670 65° Northeast 548 631 36,000  Level FlightAware ADS-B
Mon 02:27:10 AM 50.7420 -51.0130 65° Northeast 548 631 36,000  Level FlightAware ADS-B
Mon 02:27:50 AM 50.7790 -50.8890 65° Northeast 548 631 36,000  Level FlightAware ADS-B
Mon 02:28:30 AM 50.8150 -50.7660 65° Northeast 548 631 36,000  Level FlightAware ADS-B
Mon 02:29:10 AM 50.8520 -50.6420 65° Northeast 548 631 36,000  Level FlightAware ADS-B
Mon 02:29:50 AM 50.8880 -50.5180 65° Northeast 548 631 36,000  Level FlightAware ADS-B
Mon 02:30:33 AM 50.9833 -49.9333 65° Northeast 560 644 36,000  Level Gander Center
Mon 02:31:33 AM 51.0333 -49.7167 70° East 560 644 36,000  Level Gander Center
Mon 02:32:33 AM 51.0833 -49.4833 71° East 550 633 36,000  Level Gander Center
Mon 02:33:33 AM 51.1333 -49.2500 71° East 560 644 36,000 Level Gander Center
Mon 02:36:00 AM 51.2057 -48.9594 68° East  Level FlightAware Approximate
Mon 02:43:00 AM 51.5652 -47.4570 68° East  Level FlightAware Approximate
Mon 02:44:00 AM 51.6150 -47.2405 70° East  Level FlightAware Approximate
Mon 02:45:00 AM 51.6643 -47.0234 70° East  Level FlightAware Approximate
Mon 02:46:00 AM 51.7133 -46.8060 70° East  Level FlightAware Approximate
Mon 02:47:00 AM 51.7619 -46.5880 70° East  Level FlightAware Approximate
Mon 02:48:00 AM 51.8100 -46.3696 70° East  Level FlightAware Approximate
Mon 02:49:00 AM 51.8578 -46.1507 70° East  Level FlightAware Approximate
Mon 02:50:00 AM 51.9052 -45.9313 71° East  Level FlightAware Approximate
Mon 02:51:00 AM 51.9521 -45.7115 71° East  Level FlightAware Approximate
Mon 02:52:00 AM 51.9986 -45.4912 71° East  Level FlightAware Approximate
Mon 02:53:00 AM 52.0447 -45.2705 71° East  Level FlightAware Approximate
Mon 02:54:00 AM 52.0905 -45.0493 71° East  Level FlightAware Approximate
Mon 02:55:00 AM 52.1357 -44.8276 72° East  Level FlightAware Approximate
Mon 02:56:00 AM 52.1806 -44.6056 72° East  Level FlightAware Approximate
Mon 02:57:00 AM 52.2251 -44.3830 72° East  Level FlightAware Approximate
Mon 02:58:00 AM 52.2691 -44.1600 72° East  Level FlightAware Approximate
Mon 02:59:00 AM 52.3128 -43.9366 72° East  Level FlightAware Approximate
Mon 03:00:00 AM 52.3559 -43.7128 72° East  Level FlightAware Approximate
Mon 03:01:00 AM 52.3987 -43.4885 73° East  Level FlightAware Approximate
Mon 03:02:00 AM 52.4411 -43.2637 73° East  Level FlightAware Approximate
Mon 03:03:00 AM 52.4830 -43.0386 73° East  Level FlightAware Approximate
Mon 03:04:00 AM 52.5245 -42.8130 73° East  Level FlightAware Approximate
Mon 03:05:00 AM 52.5656 -42.5870 73° East  Level FlightAware Approximate
Mon 03:06:00 AM 52.6062 -42.3605 73° East  Level FlightAware Approximate
Mon 03:07:00 AM 52.6464 -42.1337 74° East  Level FlightAware Approximate
Mon 03:08:00 AM 52.6862 -41.9064 74° East  Level FlightAware Approximate
Mon 03:09:00 AM 52.7255 -41.6787 74° East  Level FlightAware Approximate
Mon 03:10:00 AM 52.7644 -41.4506 74° East  Level FlightAware Approximate
Mon 03:11:00 AM 52.8028 -41.2222 74° East  Level FlightAware Approximate
Mon 03:12:00 AM 52.8409 -40.9933 75° East  Level FlightAware Approximate
Mon 03:13:00 AM 52.8784 -40.7640 75° East  Level FlightAware Approximate
Mon 03:14:00 AM 52.9156 -40.5343 75° East  Level FlightAware Approximate
Mon 03:15:00 AM 52.9523 -40.3042 75° East  Level FlightAware Approximate
Mon 03:16:00 AM 52.9885 -40.0737 75° East  Level FlightAware Approximate
Mon 03:17:00 AM 53.0225 -39.8421 77° East  Level FlightAware Approximate
Mon 03:18:00 AM 53.0551 -39.6098 77° East  Level FlightAware Approximate
Mon 03:19:00 AM 53.0873 -39.3771 77° East  Level FlightAware Approximate
Mon 03:20:00 AM 53.1191 -39.1441 77° East  Level FlightAware Approximate
Mon 03:21:00 AM 53.1504 -38.9107 77° East  Level FlightAware Approximate
Mon 03:22:00 AM 53.1812 -38.6771 77° East  Level FlightAware Approximate
Mon 03:23:00 AM 53.2116 -38.4430 78° East  Level FlightAware Approximate
Mon 03:24:00 AM 53.2415 -38.2087 78° East  Level FlightAware Approximate
Mon 03:25:00 AM 53.2710 -37.9740 78° East  Level FlightAware Approximate
Mon 03:26:00 AM 53.3000 -37.7390 78° East  Level FlightAware Approximate
Mon 03:27:00 AM 53.3285 -37.5037 78° East  Level FlightAware Approximate
Mon 03:28:00 AM 53.3566 -37.2681 79° East  Level FlightAware Approximate
Mon 03:29:00 AM 53.3842 -37.0321 79° East  Level FlightAware Approximate
Mon 03:30:00 AM 53.4113 -36.7959 79° East  Level FlightAware Approximate
Mon 03:31:00 AM 53.4380 -36.5593 79° East  Level FlightAware Approximate
Mon 03:32:00 AM 53.4642 -36.3225 79° East  Level FlightAware Approximate
Mon 03:33:00 AM 53.4903 -36.0855 79° East  Level FlightAware Approximate
Mon 03:34:00 AM 53.5159 -35.8482 80° East  Level FlightAware Approximate
Mon 03:35:00 AM 53.5411 -35.6106 80° East  Level FlightAware Approximate
Mon 03:36:00 AM 53.5658 -35.3728 80° East  Level FlightAware Approximate
Mon 03:37:00 AM 53.5901 -35.1347 80° East  Level FlightAware Approximate
Mon 03:38:00 AM 53.6138 -34.8962 80° East  Level FlightAware Approximate
Mon 03:39:00 AM 53.6371 -34.6576 81° East  Level FlightAware Approximate
Mon 03:40:00 AM 53.6599 -34.4186 81° East  Level FlightAware Approximate
Mon 03:41:00 AM 53.6823 -34.1795 81° East  Level FlightAware Approximate
Mon 03:42:00 AM 53.7041 -33.9400 81° East  Level FlightAware Approximate
Mon 03:43:00 AM 53.7257 -33.7004 81° East  Level FlightAware Approximate
Mon 03:44:00 AM 53.7470 -33.4605 81° East  Level FlightAware Approximate
Mon 03:45:00 AM 53.7679 -33.2205 82° East  Level FlightAware Approximate
Mon 03:46:00 AM 53.7883 -32.9802 82° East  Level FlightAware Approximate
Mon 03:47:00 AM 53.8082 -32.7397 82° East  Level FlightAware Approximate
Mon 03:48:00 AM 53.8276 -32.4989 82° East  Level FlightAware Approximate
Mon 03:49:00 AM 53.8466 -32.2580 82° East  Level FlightAware Approximate
Mon 03:50:00 AM 53.8651 -32.0168 83° East  Level FlightAware Approximate
Mon 03:51:00 AM 53.8830 -31.7754 83° East  Level FlightAware Approximate
Mon 03:52:00 AM 53.9005 -31.5338 83° East  Level FlightAware Approximate
Mon 03:53:00 AM 53.9175 -31.2920 83° East  Level FlightAware Approximate
Mon 03:54:00 AM 53.9341 -31.0500 83° East  Level FlightAware Approximate
Mon 03:55:00 AM 53.9501 -30.8078 83° East  Level FlightAware Approximate
Mon 03:56:00 AM 53.9657 -30.5654 84° East  Level FlightAware Approximate
Mon 03:57:00 AM 53.9807 -30.3229 84° East  Level FlightAware Approximate
Mon 03:58:00 AM 53.9953 -30.0802 84° East  Level FlightAware Approximate
Mon 03:59:00 AM 54.0226 -29.8411 76° East  Level FlightAware Approximate
Mon 04:00:00 AM 54.0560 -29.6035 76° East  Level FlightAware Approximate
Mon 04:01:00 AM 54.0889 -29.3655 77° East  Level FlightAware Approximate
Mon 04:02:00 AM 54.1213 -29.1272 77° East  Level FlightAware Approximate
Mon 04:03:00 AM 54.1533 -28.8885 77° East  Level FlightAware Approximate
Mon 04:04:00 AM 54.1848 -28.6494 77° East  Level FlightAware Approximate
Mon 04:05:00 AM 54.2158 -28.4100 77° East  Level FlightAware Approximate
Mon 04:06:00 AM 54.2464 -28.1702 78° East  Level FlightAware Approximate
Mon 04:07:00 AM 54.2765 -27.9301 78° East  Level FlightAware Approximate
Mon 04:08:00 AM 54.3061 -27.6896 78° East  Level FlightAware Approximate
Mon 04:09:00 AM 54.3352 -27.4488 78° East  Level FlightAware Approximate
Mon 04:10:00 AM 54.3638 -27.2076 78° East  Level FlightAware Approximate
Mon 04:11:00 AM 54.3909 -26.9657 79° East  Level FlightAware Approximate
Mon 04:12:00 AM 54.4173 -26.7235 79° East  Level FlightAware Approximate
Mon 04:13:00 AM 54.4432 -26.4810 79° East  Level FlightAware Approximate
Mon 04:14:00 AM 54.4687 -26.2381 80° East  Level FlightAware Approximate
Mon 04:15:00 AM 54.4937 -25.9950 80° East  Level FlightAware Approximate
Mon 04:16:00 AM 54.5183 -25.7516 79° East  Level FlightAware Approximate
Mon 04:17:00 AM 54.5445 -25.5085 79° East  Level FlightAware Approximate
Mon 04:18:00 AM 54.5701 -25.2651 80° East  Level FlightAware Approximate
Mon 04:19:00 AM 54.5953 -25.0214 80° East  Level FlightAware Approximate
Mon 04:20:00 AM 54.6200 -24.7775 80° East  Level FlightAware Approximate
Mon 04:21:00 AM 54.6442 -24.5332 80° East  Level FlightAware Approximate
Mon 04:22:00 AM 54.6679 -24.2886 80° East  Level FlightAware Approximate
Mon 04:23:00 AM 54.6911 -24.0438 81° East  Level FlightAware Approximate
Mon 04:24:00 AM 54.7138 -23.7986 81° East  Level FlightAware Approximate
Mon 04:25:00 AM 54.7360 -23.5532 81° East  Level FlightAware Approximate
Mon 04:26:00 AM 54.7577 -23.3076 81° East  Level FlightAware Approximate
Mon 04:27:00 AM 54.7789 -23.0616 81° East  Level FlightAware Approximate
Mon 04:28:00 AM 54.7996 -22.8154 82° East  Level FlightAware Approximate
Mon 04:29:00 AM 54.8199 -22.5690 82° East  Level FlightAware Approximate
Mon 04:30:00 AM 54.8396 -22.3223 82° East  Level FlightAware Approximate
Mon 04:31:00 AM 54.8588 -22.0754 82° East  Level FlightAware Approximate
Mon 04:32:00 AM 54.8775 -21.8283 82° East  Level FlightAware Approximate
Mon 04:33:00 AM 54.8957 -21.5809 83° East  Level FlightAware Approximate
Mon 04:34:00 AM 54.9135 -21.3333 83° East  Level FlightAware Approximate
Mon 04:35:00 AM 54.9307 -21.0855 83° East  Level FlightAware Approximate
Mon 04:36:00 AM 54.9474 -20.8375 83° East  Level FlightAware Approximate
Mon 04:37:00 AM 54.9636 -20.5893 83° East  Level FlightAware Approximate
Mon 04:38:00 AM 54.9793 -20.3409 84° East  Level FlightAware Approximate
Mon 04:39:00 AM 54.9945 -20.0922 84° East  Level FlightAware Approximate
Mon 04:40:00 AM 54.9930 -19.8432 94° East  Level FlightAware Approximate
Mon 04:41:00 AM 54.9815 -19.5940 95° East  Level FlightAware Approximate
Mon 04:42:00 AM 54.9694 -19.3449 95° East  Level FlightAware Approximate
Mon 04:43:00 AM 54.9568 -19.0960 95° East  Level FlightAware Approximate
Mon 04:44:00 AM 54.9438 -18.8472 95° East  Level FlightAware Approximate
Mon 04:45:00 AM 54.9302 -18.5986 95° East  Level FlightAware Approximate
Mon 04:46:00 AM 54.9161 -18.3502 96° East  Level FlightAware Approximate
Mon 04:47:00 AM 54.9016 -18.1020 96° East  Level FlightAware Approximate
Mon 04:48:00 AM 54.8865 -17.8540 96° East  Level FlightAware Approximate
Mon 04:49:00 AM 54.8709 -17.6061 96° East  Level FlightAware Approximate
Mon 04:50:00 AM 54.8548 -17.3584 96° East  Level FlightAware Approximate
Mon 04:51:00 AM 54.8382 -17.1110 97° East  Level FlightAware Approximate
Mon 04:52:00 AM 54.8210 -16.8637 97° East  Level FlightAware Approximate
Mon 04:53:00 AM 54.8034 -16.6166 97° East  Level FlightAware Approximate
Mon 04:54:00 AM 54.7853 -16.3698 97° East  Level FlightAware Approximate
Mon 04:54:47 AM 54.8560 -13.7310 97° East 536 617 37,000  Level FlightAware ADS-B
Mon 04:55:00 AM 54.7667 -16.1232 97° East  Level FlightAware Approximate
Mon 04:55:27 AM 54.8340 -13.5630 103° East 535 616 37,000  Level FlightAware ADS-B
Mon 04:56:22 AM 54.8060 -13.3420 102° East 535 616 37,000  Level FlightAware ADS-B
Mon 04:57:07 AM 54.7810 -13.1560 103° East 530 610 37,000  Level FlightAware ADS-B
Mon 04:57:47 AM 54.7580 -12.9830 103° East 529 609 37,000  Level FlightAware ADS-B
Mon 04:58:32 AM 54.7350 -12.8080 103° East 529 609 37,000  Level FlightAware ADS-B
Mon 04:59:27 AM 54.7030 -12.5740 103° East 530 610 37,000  Level FlightAware ADS-B
Mon 05:00:27 AM 54.6680 -12.3260 104° East 530 610 37,000  Level FlightAware ADS-B
Mon 05:01:07 AM 54.6450 -12.1630 104° East 530 610 37,000  Level FlightAware ADS-B
Mon 05:01:47 AM 54.6220 -11.9980 103° East 530 610 37,000  Level FlightAware ADS-B
Mon 05:02:32 AM 54.5940 -11.8080 104° East 530 610 37,000  Level FlightAware ADS-B
Mon 05:03:12 AM 54.5710 -11.6460 104° East 531 611 37,000  Level FlightAware ADS-B
Mon 05:03:52 AM 54.5460 -11.4790 104° East 531 611 37,000  Level FlightAware ADS-B
Mon 05:04:37 AM 54.5190 -11.2980 104° East 532 612 37,000  Level FlightAware ADS-B
Mon 05:05:12 AM 54.4970 -11.1530 105° East 533 613 37,000  Level FlightAware ADS-B
Mon 05:05:52 AM 54.4730 -10.9930 104° East 533 613 37,000  Level FlightAware ADS-B
Mon 05:06:42 AM 54.4410 -10.7860 105° East 531 611 37,000  Level FlightAware ADS-B
Mon 05:07:27 AM 54.4130 -10.6050 105° East 532 612 37,000  Level FlightAware ADS-B
Mon 05:08:07 AM 54.3870 -10.4390 105° East 532 612 37,000  Level FlightAware ADS-B
Mon 05:08:57 AM 54.3630 -10.2920 106° East 534 615 37,000  Level FlightAware ADS-B
Mon 05:09:57 AM 54.3150 -9.9910 105° East 535 616 37,000  Level FlightAware ADS-B
Mon 05:10:32 AM 54.2910 -9.8420 105° East 535 616 37,000  Level FlightAware ADS-B
Mon 05:11:22 AM 54.2590 -9.6520 106° East 535 616 37,000  Level FlightAware ADS-B
Mon 05:12:07 AM 54.2280 -9.4680 106° East 534 615 37,000  Level FlightAware ADS-B
Mon 05:12:42 AM 54.2040 -9.3230 106° East 534 615 37,000  Level FlightAware ADS-B
Mon 05:13:27 AM 54.1730 -9.1390 106° East 534 615 37,000 -1,071 Level FlightAware ADS-B
Mon 05:14:06 AM 54.1336 -8.9571 106° East 454 522 35,500  Descending FlightAware UK
Mon 05:14:12 AM 54.1410 -8.9550 106° East 532 612 37,000  Climbing FlightAware ADS-B
Mon 05:14:30 AM 54.1171 -8.8610 106° East 452 520 35,500 -2,500 Descending FlightAware UK
Mon 05:14:48 AM 54.1044 -8.7887 107° East 452 520 35,500 4,091 Level FlightAware UK
Mon 05:14:52 AM 54.1140 -8.7960 107° East 530 610 37,000  Climbing FlightAware ADS-B
Mon 05:15:12 AM 54.0876 -8.6928 107° East 452 520 35,500 -2,368 Descending FlightAware UK
Mon 05:15:30 AM 54.0752 -8.6206 106° East 450 518 35,500 2,571 Level FlightAware UK
Mon 05:15:47 AM 54.0750 -8.5750 107° East 530 610 37,000 -333 Climbing FlightAware ADS-B
Mon 05:15:48 AM 54.0625 -8.5485 107° East 452 520 35,400 -5,053 Descending FlightAware UK
Mon 05:16:06 AM 54.0497 -8.4759 107° East 452 520 35,400  Level FlightAware UK
Mon 05:16:24 AM 54.0370 -8.4043 107° East 452 520 35,400 3,692 Level FlightAware UK
Mon 05:16:32 AM 54.0430 -8.3940 107° East 529 609 37,000 250 Climbing FlightAware ADS-B
Mon 05:16:48 AM 54.0200 -8.3088 107° East 454 522 35,500 -2,647 Descending FlightAware UK
Mon 05:17:06 AM 54.0072 -8.2372 107° East 452 520 35,500 3,750 Level FlightAware UK
Mon 05:17:12 AM 54.0150 -8.2380 107° East 529 609 37,000  Climbing FlightAware ADS-B
Mon 05:17:30 AM 53.9900 -8.1418 107° East 452 520 35,500 -2,500 Descending FlightAware UK
Mon 05:17:48 AM 53.9774 -8.0703 107° East 450 518 35,500 2,432 Level FlightAware UK
Mon 05:18:07 AM 53.9750 -8.0190 107° East 528 608 37,000 -167 Climbing FlightAware ADS-B
Mon 05:18:24 AM 53.9515 -7.9274 107° East 450 518 35,400 -2,743 Descending FlightAware UK
Mon 05:18:42 AM 53.9385 -7.8562 107° East 450 518 35,400 4,174 Level FlightAware UK
Mon 05:18:47 AM 53.9470 -7.8680 107° East 527 606 37,000  Climbing FlightAware ADS-B
Mon 05:19:06 AM 53.9211 -7.7614 107° East 450 518 35,400 -2,595 Descending FlightAware UK
Mon 05:19:24 AM 53.9080 -7.6904 107° East 448 516 35,400 3,692 Level FlightAware UK
Mon 05:19:32 AM 53.9130 -7.6820 107° East 529 609 37,000  Climbing FlightAware ADS-B
Mon 05:19:48 AM 53.8906 -7.5959 107° East 448 516 35,400 -2,824 Descending FlightAware UK
Mon 05:20:06 AM 53.8777 -7.5250 107° East 448 516 35,400 3,310 Level FlightAware UK
Mon 05:20:17 AM 53.8820 -7.5180 107° East 528 608 37,000  Climbing FlightAware ADS-B
Mon 05:20:36 AM 53.8556 -7.4072 107° East 448 516 35,400 -2,595 Descending FlightAware UK
Mon 05:20:54 AM 53.8424 -7.3368 108° East 448 516 35,400  Level FlightAware UK
Mon 05:21:12 AM 53.8291 -7.2664 108° East 448 516 35,400 4,174 Level FlightAware UK
Mon 05:21:17 AM 53.8390 -7.2850 108° East 527 606 37,000 250 Climbing FlightAware ADS-B
Mon 05:21:36 AM 53.8112 -7.1717 108° East 448 516 35,500 -2,432 Descending FlightAware UK
Mon 05:21:54 AM 53.7979 -7.1013 108° East 448 516 35,500 2,903 Level FlightAware UK
Mon 05:22:07 AM 53.7980 -7.0730 108° East 527 606 37,000  Climbing FlightAware ADS-B
Mon 05:22:24 AM 53.7757 -6.9842 108° East 448 516 35,500 -2,571 Descending FlightAware UK
Mon 05:22:42 AM 53.7622 -6.9139 108° East 448 516 35,500 3,913 Level FlightAware UK
Mon 05:22:47 AM 53.7700 -6.9240 108° East 528 608 37,000  Climbing FlightAware ADS-B
Mon 05:23:06 AM 53.7441 -6.8206 108° East 448 516 35,500 -2,432 Descending FlightAware UK
Mon 05:23:24 AM 53.7305 -6.7506 108° East 448 516 35,500 3,462 Level FlightAware UK
Mon 05:23:32 AM 53.7350 -6.7450 108° East 527 606 37,000  Climbing FlightAware ADS-B
Mon 05:23:48 AM 53.7124 -6.6573 108° East 448 516 35,500 -2,647 Descending FlightAware UK
Mon 05:24:06 AM 53.6987 -6.5874 108° East 450 518 35,500 3,750 Level FlightAware UK
Mon 05:24:12 AM 53.7030 -6.5810 108° East 526 605 37,000  Climbing FlightAware ADS-B
Mon 05:24:30 AM 53.6806 -6.4942 108° East 450 518 35,500 -2,500 Descending FlightAware UK
Mon 05:24:48 AM 53.6669 -6.4243 108° East 450 518 35,500 3,333 Level FlightAware UK
Mon 05:24:57 AM 53.6690 -6.4090 108° East 526 605 37,000  Climbing FlightAware ADS-B
Mon 05:25:12 AM 53.6484 -6.3314 108° East 452 520 35,500 -2,727 Descending FlightAware UK
Mon 05:25:30 AM 53.6345 -6.2619 109° East 452 520 35,500 3,600 Level FlightAware UK
Mon 05:25:37 AM 53.6370 -6.2510 109° East 526 605 37,000  Climbing FlightAware ADS-B
Mon 05:25:54 AM 53.6161 -6.1691 109° East 452 520 35,500 -2,571 Descending FlightAware UK
Mon 05:26:12 AM 53.6023 -6.0996 109° East 452 520 35,500 3,214 Level FlightAware UK
Mon 05:26:22 AM 53.6030 -6.0780 109° East 524 603 37,000  Climbing FlightAware ADS-B
Mon 05:26:42 AM 53.5788 -5.9834 109° East 454 522 35,500  Descending FlightAware UK
Mon 05:27:02 AM 53.5720 -5.9280 109° East 524 603 37,000  Climbing FlightAware ADS-B
Mon 05:27:18 AM 53.5509 -5.8452 109° East 454 522 35,500 -2,647 Descending FlightAware UK
Mon 05:27:36 AM 53.5369 -5.7765 109° East 452 520 35,500 4,737 Level FlightAware UK
Mon 05:27:37 AM 53.5450 -5.7930 109° East 523 602 37,000  Climbing FlightAware ADS-B
Mon 05:27:54 AM 53.5229 -5.7077 109° East 452 520 35,500 -2,571 Descending FlightAware UK
Mon 05:28:12 AM 53.5088 -5.6389 109° East 452 520 35,500 2,727 Level FlightAware UK
Mon 05:28:27 AM 53.5060 -5.5960 109° East 518 596 37,000  Climbing FlightAware ADS-B
Mon 05:28:42 AM 53.4904 -5.5230 109° East 450 518 35,500 -2,727 Descending FlightAware UK
Mon 05:29:00 AM 53.4831 -5.4530 100° East 454 522 35,500 3,600 Level FlightAware UK
Mon 05:29:07 AM 53.4880 -5.4430 100° East 509 586 37,000  Climbing FlightAware ADS-B
Mon 05:29:24 AM 53.4778 -5.3592 100° East 454 522 35,500  Descending FlightAware UK
Mon 05:29:52 AM 53.4800 -5.2650 100° East 503 579 37,000  Climbing FlightAware ADS-B
Mon 05:30:12 AM 53.4720 -5.1722 100° East 450 518 35,500 -2,368 Descending FlightAware UK
Mon 05:30:30 AM 53.4696 -5.1024 93° East 450 518 35,500 4,500 Level FlightAware UK
Mon 05:30:32 AM 53.4750 -5.1090 93° East 502 578 37,000  Climbing FlightAware ADS-B
Mon 05:30:48 AM 53.4672 -5.0326 93° East 450 518 35,500 -2,647 Descending FlightAware UK
Mon 05:31:06 AM 53.4649 -4.9628 93° East 452 520 35,500 3,103 Level FlightAware UK
Mon 05:31:17 AM 53.4690 -4.9390 93° East 501 577 37,000  Climbing FlightAware ADS-B
Mon 05:31:36 AM 53.4614 -4.8466 93° East 450 518 35,500  Descending FlightAware UK
Mon 05:31:57 AM 53.4640 -4.7830 93° East 500 575 37,000  Climbing FlightAware ADS-B
Mon 05:32:12 AM 53.4565 -4.7076 93° East 450 518 35,500  Descending FlightAware UK
Mon 05:32:37 AM 53.4580 -4.6270 93° East 501 577 37,000  Climbing FlightAware ADS-B
Mon 05:32:54 AM 53.4507 -4.5452 93° East 448 516 35,500 -2,571 Descending FlightAware UK
Mon 05:33:12 AM 53.4483 -4.4754 93° East 448 516 35,500 3,214 Level FlightAware UK
Mon 05:33:22 AM 53.4520 -4.4550 93° East 503 579 37,000  Climbing FlightAware ADS-B
Mon 05:33:49 AM 53.4432 -4.3349 93° East 450 518 35,500  Descending FlightAware UK
Mon 05:34:02 AM 53.4460 -4.2960 93° East 504 580 37,000  Climbing FlightAware ADS-B
Mon 05:34:19 AM 53.4388 -4.2184 93° East 450 518 35,500 -2,195 Descending FlightAware UK
Mon 05:34:43 AM 53.4350 -4.1251 94° East 448 516 35,500 3,214 Level FlightAware UK
Mon 05:34:47 AM 53.4400 -4.1270 94° East 504 580 37,000  Climbing FlightAware ADS-B
Mon 05:35:19 AM 53.4294 -3.9853 94° East 448 516 35,500  Descending FlightAware UK
Mon 05:35:27 AM 53.4330 -3.9690 94° East 504 580 37,000  Climbing FlightAware ADS-B
Mon 05:35:43 AM 53.4256 -3.8919 94° East 452 520 35,500  Descending FlightAware UK
Mon 05:36:07 AM 53.4270 -3.8180 94° East 503 579 37,000 2,647 Climbing FlightAware ADS-B
Mon 05:36:17 AM 53.4248 -3.7664 94° East 503 579 37,000 -3,000 Level FlightAware ADS-B
Mon 05:36:37 AM 53.4170 -3.6824 94° East 454 522 35,500  Descending FlightAware UK
Mon 05:36:51 AM 53.4189 -3.6361 94° East 503 579 37,000 3,103 Climbing FlightAware ADS-B
Mon 05:37:06 AM 53.4146 -3.5772 97° East 510 587 37,000 -2,647 Level FlightAware ADS-B
Mon 05:37:25 AM 53.4006 -3.4954 97° East 452 520 35,500  Descending FlightAware UK
Mon 05:37:31 AM 53.4011 -3.4796 97° East 518 596 37,000 5,000 Climbing FlightAware ADS-B
Mon 05:37:43 AM 53.3922 -3.4342 108° East 522 601 37,000  Level FlightAware ADS-B
Mon 05:38:08 AM 53.3677 -3.3415 114° Southeast 528 608 37,000 -2,000 Level FlightAware ADS-B
Mon 05:38:31 AM 53.3369 -3.2506 114° Southeast 450 518 35,400  Descending FlightAware UK
Mon 05:38:43 AM 53.3286 -3.2173 114° Southeast 530 610 37,000 167 Climbing FlightAware ADS-B
Mon 05:39:07 AM 53.2957 -3.1198 114° Southeast 450 518 35,500  Descending FlightAware UK
Mon 05:39:19 AM 53.2874 -3.0849 114° Southeast 525 604 37,000 3,103 Climbing FlightAware ADS-B
Mon 05:39:36 AM 53.2738 -3.0222 110° East 517 595 37,000 -3,000 Level FlightAware ADS-B
Mon 05:39:55 AM 53.2546 -2.9405 110° East 448 516 35,200 -1,000 Descending FlightAware UK
Mon 05:40:06 AM 53.2507 -2.9089 110° East 515 593 36,500 -1,400 Climbing FlightAware ADS-B
Mon 05:40:25 AM 53.2312 -2.8274 110° East 448 516 34,500 -1,333 Descending FlightAware UK
Mon 05:40:42 AM 53.2240 -2.7770 109° East 516 594 35,700 -1,333 Climbing FlightAware ADS-B
Mon 05:40:43 AM 53.2174 -2.7596 109° East 448 516 34,100 -1,500 Descending FlightAware UK
Mon 05:40:50 AM 53.2172 -2.7430 108° East 516 594 35,500 -1,200 Climbing FlightAware ADS-B
Mon 05:41:13 AM 53.1949 -2.6463 108° East 452 520 33,500 -1,029 Descending FlightAware UK
Mon 05:41:25 AM 53.1909 -2.6118 108° East 516 594 34,900 -1,000 Climbing FlightAware ADS-B
Mon 05:41:43 AM 53.1718 -2.5327 108° East 450 518 33,000 -1,125 Descending FlightAware UK
Mon 05:42:13 AM 53.1527 -2.4307 108° East 514 592 34,000 -655 Climbing FlightAware ADS-B
Mon 05:42:38 AM 53.1163 -2.3389 108° East 444 511 32,400  Descending FlightAware UK
Mon 05:42:52 AM 53.1020 -2.3130 108° East 528 608 34,000  Climbing FlightAware ADS-B
Mon 05:43:08 AM 53.0625 -2.2568 108° East 444 511 32,400 -3,000 Descending FlightAware UK
Mon 05:43:26 AM 53.0238 -2.2210 151° Southeast 446 513 32,300 3,500 Descending FlightAware UK
Mon 05:43:32 AM 53.0190 -2.2230 151° Southeast 533 613 33,800 -1,429 Climbing FlightAware ADS-B
Mon 05:44:08 AM 52.9303 -2.1486 151° Southeast 448 516 31,300 -1,600 Descending FlightAware UK
Mon 05:44:17 AM 52.9240 -2.1490 151° Southeast 524 603 32,600 -1,750 Climbing FlightAware ADS-B
Mon 05:44:32 AM 52.8779 -2.1078 151° Southeast 442 509 30,600 -5,273 Descending FlightAware UK
Mon 05:44:50 AM 52.8390 -2.0781 155° Southeast 446 513 29,700 960 Descending FlightAware UK
Mon 05:44:57 AM 52.8360 -2.0820 155° Southeast 520 598 31,000 -3,600 Climbing FlightAware ADS-B
Mon 05:45:20 AM 52.7727 -2.0268 155° Southeast 458 527 27,900 -3,450 Descending FlightAware UK
Mon 05:45:37 AM 52.7460 -2.0120 155° Southeast 531 611 28,700 -2,667 Climbing FlightAware ADS-B
Mon 05:45:56 AM 52.6927 -1.9645 155° Southeast 458 527 26,300 -2,133 Descending FlightAware UK
Mon 05:46:22 AM 52.6450 -1.9350 155° Southeast 517 595 27,100 -118 Climbing FlightAware ADS-B
Mon 05:46:42 AM 52.5977 -1.9005 156° South 26,400 -2,160 Descending FlightAware ADS-B
Mon 05:46:47 AM 52.5868 -1.8924 156° South 508 585 26,200 -5,769 Descending FlightAware ADS-B
Mon 05:47:08 AM 52.5368 -1.8494 156° South 438 504 23,900 -2,200 Descending FlightAware UK
Mon 05:47:17 AM 52.5225 -1.8454 156° South 501 577 25,100 -2,250 Climbing FlightAware ADS-B
Mon 05:47:32 AM 52.4859 -1.8123 156° South 436 502 23,000 -2,000 Descending FlightAware UK
Mon 05:47:50 AM 52.4556 -1.7968 156° South 491 565 24,000 -2,000 Climbing FlightAware ADS-B
Mon 05:48:14 AM 52.3987 -1.7489 156° South 424 488 21,600 -2,000 Descending FlightAware UK
Mon 05:48:23 AM 52.3871 -1.7467 156° South 483 556 22,900 -1,800 Climbing FlightAware ADS-B
Mon 05:48:44 AM 52.3377 -1.7046 156° South 422 486 20,700 -1,935 Descending FlightAware UK
Mon 05:48:54 AM 52.3247 -1.7019 156° South 471 542 21,900 -2,000 Climbing FlightAware ADS-B
Mon 05:49:14 AM 52.2787 -1.6623 156° South 414 476 19,700 -1,818 Descending FlightAware UK
Mon 05:49:27 AM 52.2586 -1.6550 156° South 459 528 20,900 2,700 Climbing FlightAware ADS-B
Mon 05:49:34 AM 52.2458 -1.6447 154° Southeast 457 526 20,600 -2,118 Descending FlightAware ADS-B
Mon 05:49:44 AM 52.2280 -1.6264 148° Southeast 452 520 20,300 -4,929 Descending FlightAware ADS-B
Mon 05:50:02 AM 52.1914 -1.5781 148° Southeast 408 470 18,300 -1,313 Descending FlightAware UK
Mon 05:50:16 AM 52.1765 -1.5633 148° Southeast 436 502 19,600 -1,500 Climbing FlightAware ADS-B
Mon 05:50:38 AM 52.1340 -1.5075 148° Southeast 396 456 17,400 -1,800 Descending FlightAware UK
Mon 05:50:46 AM 52.1290 -1.5042 148° Southeast 426 490 18,700 -2,000 Climbing FlightAware ADS-B
Mon 05:51:02 AM 52.0966 -1.4607 148° Southeast 390 449 16,600 -2,250 Descending FlightAware UK
Mon 05:51:18 AM 52.0788 -1.4412 148° Southeast 423 487 17,500 -2,333 Climbing FlightAware ADS-B
Mon 05:51:38 AM 52.0406 -1.3902 148° Southeast 382 440 15,200 -2,129 Descending FlightAware UK
Mon 05:51:49 AM 52.0319 -1.3827 148° Southeast 422 486 16,400 -2,200 Climbing FlightAware ADS-B
Mon 05:52:08 AM 51.9940 -1.3323 148° Southeast 382 440 14,100 -2,200 Descending FlightAware UK
Mon 05:52:19 AM 51.9849 -1.3248 148° Southeast 410 472 15,300 -1,600 Climbing FlightAware ADS-B
Mon 05:52:38 AM 51.9489 -1.2783 148° Southeast 352 405 13,300 -1,161 Descending FlightAware UK
Mon 05:52:50 AM 51.9405 -1.2707 148° Southeast 368 423 14,700 1,429 Climbing FlightAware ADS-B
Mon 05:53:20 AM 51.9017 -1.2233 143° Southeast 340 391 14,300 -2,875 Descending FlightAware ADS-B
Mon 05:53:38 AM 51.8710 -1.1830 143° Southeast 308 354 12,400 -720 Descending FlightAware UK
Mon 05:53:45 AM 51.8704 -1.1850 143° Southeast 331 381 14,000  Climbing FlightAware ADS-B
Mon 05:54:02 AM 51.8414 -1.1469 143° Southeast 300 345 12,400  Descending FlightAware UK
Mon 05:54:19 AM 51.8288 -1.1344 143° Southeast 337 388 14,000 2,909 Climbing FlightAware ADS-B
Mon 05:54:35 AM 51.8085 -1.1098 143° Southeast 341 392 14,000  Level FlightAware ADS-B
Mon 05:54:44 AM 51.7981 -1.0959 140° Southeast 340 391 14,000  Level FlightAware ADS-B
Mon 05:54:53 AM 51.7891 -1.0799 132° Southeast 337 388 14,000  Level FlightAware ADS-B
Mon 05:54:59 AM 51.7835 -1.0670 125° Southeast 334 384 14,000  Level FlightAware ADS-B
Mon 05:55:05 AM 51.7787 -1.0536 120° Southeast 332 382 14,000  Level FlightAware ADS-B
Mon 05:55:15 AM 51.7728 -1.0329 115° Southeast 328 377 14,000 -333 Level FlightAware ADS-B
Mon 05:55:23 AM 51.7692 -1.0140 107° East 325 374 13,900 -1,125 Descending FlightAware ADS-B
Mon 05:55:31 AM 51.7668 -0.9936 101° East 321 369 13,700 -1,333 Descending FlightAware ADS-B
Mon 05:55:59 AM 51.7622 -0.9279 96° East 320 368 13,100 -3,628 Descending FlightAware ADS-B
Mon 05:56:14 AM 51.7506 -0.8778 96° East 302 348 11,100 -1,556 Descending FlightAware UK
Mon 05:56:26 AM 51.7576 -0.8642 96° East 320 368 12,400 -1,333 Climbing FlightAware ADS-B
Mon 05:56:50 AM 51.7442 -0.7926 96° East 300 345 10,300 -1,355 Descending FlightAware UK
Mon 05:56:57 AM 51.7526 -0.7921 96° East 317 365 11,700 1,333 Climbing FlightAware ADS-B
Mon 05:57:26 AM 51.7480 -0.7242 96° East 310 357 11,100 -1,222 Descending FlightAware ADS-B
Mon 05:57:51 AM 51.7440 -0.6677 97° East 307 353 10,600 -1,222 Descending FlightAware ADS-B
Mon 05:58:20 AM 51.7390 -0.6004 97° East 303 349 10,000 -1,286 Descending FlightAware ADS-B
Mon 05:58:33 AM 51.7368 -0.5719 97° East 294 338 9,700 -1,412 Descending FlightAware ADS-B
Mon 05:58:37 AM 51.7358 -0.5632 101° East 290 334 9,600 -750 Descending FlightAware ADS-B
Mon 05:58:41 AM 51.7345 -0.5565 107° East 287 330 9,600 -750 Level FlightAware ADS-B
Mon 05:58:45 AM 51.7323 -0.5489 115° Southeast 282 325 9,500 -1,714 Descending FlightAware ADS-B
Mon 05:58:48 AM 51.7298 -0.5430 124° Southeast 278 320 9,400 -857 Descending FlightAware ADS-B
Mon 05:58:52 AM 51.7266 -0.5370 131° Southeast 276 318 9,400 -600 Level FlightAware ADS-B
Mon 05:58:58 AM 51.7215 -0.5272 130° Southeast 272 313 9,300 -1,200 Descending FlightAware ADS-B
Mon 05:59:02 AM 51.7192 -0.5217 124° Southeast 271 312 9,200 -706 Descending FlightAware ADS-B
Mon 05:59:15 AM 51.7115 -0.4967 116° Southeast 265 305 9,100 -783 Descending FlightAware ADS-B
Mon 05:59:25 AM 51.7065 -0.4801 116° Southeast 263 303 8,900 -1,000 Descending FlightAware ADS-B
Mon 05:59:39 AM 51.6989 -0.4552 116° Southeast 260 299 8,700 -923 Descending FlightAware ADS-B
Mon 05:59:51 AM 51.6926 -0.4350 117° Southeast 261 300 8,500 -1,111 Descending FlightAware ADS-B
Mon 06:00:06 AM 51.6846 -0.4081 116° Southeast 257 296 8,200 -774 Descending FlightAware ADS-B
Mon 06:00:22 AM 51.6768 -0.3819 116° Southeast 254 292 8,100 -581 Descending FlightAware ADS-B
Mon 06:00:37 AM 51.6691 -0.3562 116° Southeast 253 291 7,900 -600 Descending FlightAware ADS-B
Mon 06:00:52 AM 51.6616 -0.3308 115° Southeast 250 288 7,800 -600 Descending FlightAware ADS-B
Mon 06:01:07 AM 51.6539 -0.3047 115° Southeast 250 288 7,600 -774 Descending FlightAware ADS-B
Mon 06:01:23 AM 51.6464 -0.2786 115° Southeast 251 289 7,400 -750 Descending FlightAware ADS-B
Mon 06:01:39 AM 51.6381 -0.2503 115° Southeast 255 293 7,200 -706 Descending FlightAware ADS-B
Mon 06:01:57 AM 51.6295 -0.2209 115° Southeast 256 295 7,000 -909 Descending FlightAware ADS-B
Mon 06:02:12 AM 51.6219 -0.1943 115° Southeast 255 293 6,700 -960 Descending FlightAware ADS-B
Mon 06:02:22 AM 51.6169 -0.1772 115° Southeast 255 293 6,600 -750 Descending FlightAware ADS-B
Mon 06:02:36 AM 51.6100 -0.1530 115° Southeast 254 292 6,400 -900 Descending FlightAware ADS-B
Mon 06:02:42 AM 51.6070 -0.1433 117° Southeast 253 291 6,300 -600 Descending FlightAware ADS-B
Mon 06:02:46 AM 51.6044 -0.1370 124° Southeast 251 289 6,300  Level FlightAware ADS-B
Mon 06:02:49 AM 51.6021 -0.1324 129° Southeast 249 287 6,300 -750 Level FlightAware ADS-B
Mon 06:02:54 AM 51.5983 -0.1245 128° Southeast 248 285 6,200 -1,000 Descending FlightAware ADS-B
Mon 06:03:01 AM 51.5927 -0.1157 136° Southeast 245 282 6,100 -600 Descending FlightAware ADS-B
Mon 06:03:04 AM 51.5899 -0.1124 144° Southeast 242 278 6,100 -750 Level FlightAware ADS-B
Mon 06:03:09 AM 51.5859 -0.1090 153° Southeast 239 275 6,000 -1,500 Descending FlightAware ADS-B
Mon 06:03:12 AM 51.5819 -0.1067 160° South 234 269 5,900 -667 Descending FlightAware ADS-B
Mon 06:03:18 AM 51.5760 -0.1050 169° South 230 265 5,900 -857 Level FlightAware ADS-B
Mon 06:03:33 AM 51.5603 -0.1025 174° South 223 257 5,600 -800 Descending FlightAware ADS-B
Mon 06:03:48 AM 51.5451 -0.0998 174° South 214 246 5,500 -429 Descending FlightAware ADS-B
Mon 06:04:01 AM 51.5333 -0.0978 174° South 203 234 5,400 -818 Descending FlightAware ADS-B
Mon 06:04:10 AM 51.5248 -0.0998 188° South 193 222 5,200 -923 Descending FlightAware ADS-B
Mon 06:04:14 AM 51.5217 -0.1021 205° Southwest 188 216 5,200 -1,091 Level FlightAware ADS-B
Mon 06:04:21 AM 51.5169 -0.1085 220° Southwest 183 211 5,000 -1,091 Descending FlightAware ADS-B
Mon 06:04:25 AM 51.5151 -0.1119 230° Southwest 178 205 5,000 -600 Level FlightAware ADS-B
Mon 06:04:31 AM 51.5126 -0.1190 240° Southwest 175 201 4,900 -1,364 Descending FlightAware ADS-B
Mon 06:04:47 AM 51.5071 -0.1370 244° Southwest 171 197 4,500 -1,688 Descending FlightAware ADS-B
Mon 06:05:03 AM 51.5013 -0.1549 242° Southwest 167 192 4,000 -1,742 Descending FlightAware ADS-B
Mon 06:05:18 AM 51.4959 -0.1712 242° Southwest 159 183 3,600 -1,500 Descending FlightAware ADS-B
Mon 06:05:27 AM 51.4932 -0.1801 244° Southwest 155 178 3,400 -1,429 Descending FlightAware ADS-B
Mon 06:05:39 AM 51.4917 -0.1935 260° West 153 176 3,100 -1,200 Descending FlightAware ADS-B
Mon 06:05:52 AM 51.4924 -0.2086 274° West 152 175 2,900 -545 Descending FlightAware ADS-B
Mon 06:06:01 AM 51.4927 -0.2189 273° West 154 177 2,900 -3,724 Level FlightAware ADS-B
Mon 06:06:21 AM 51.4781 -0.2267 273° West 172 198 1,100 -889 Descending FlightAware UK
Mon 06:06:28 AM 51.4927 -0.2493 273° West 158 182 2,500 -1,000 Climbing FlightAware ADS-B
Mon 06:06:45 AM 51.4781 -0.2543 273° West 164 189 700 -769 Descending FlightAware UK
Mon 06:07:07 AM 51.4930 -0.2900 273° West 156 180 2,000 1,149 Climbing FlightAware ADS-B
Mon 06:07:32 AM 51.4930 -0.3190 270° West 156 180 1,600 -873 Descending FlightAware ADS-B
Mon 06:08:02 AM 51.4930 -0.3530 270° West 152 175 1,200 -800 Descending FlightAware ADS-B
Mon 06:08:17 AM 51.4930 -0.3730 270° West 158 182 1,000 -900 Descending FlightAware ADS-B
Mon 06:08:42 AM 51.4940 -0.4000 273° West 145 167 600 -873 Descending FlightAware ADS-B
Mon 06:09:12 AM 51.4940 -0.4350 270° West 150 173 200 -667 Descending FlightAware ADS-B
Mon 06:09:27 AM 51.4940 -0.4490 270° West 152 175 100 -150 Descending FlightAware ADS-B
Mon 06:09:52 AM 51.4940 -0.4740 270° West 152 175 100  Level FlightAware ADS-B

Login

Don't have an account? Register now (free) for customized features, flight alerts, and more!